To NAV CANADA Home Page Login to a new session Search on AWWS site Feedback and Comments Disclaimer Vers la page française équivalente Tips FAQ What's new on the site To the Forecasts and Observations / NOTAM section To "File a Flight Plan" website Publications and other links Update of the User's profile FIC Telephone Numbers My Weather Data Folder Route Weather Data Regional Weather Data Local Weather Data To the Forecasts and Observations / NOTAM section
Request Generated 09/30/2016 at 18:32:51 UTC . Weather information available at that time is displayed.

METAR/TAF

LA GRANDE-4/QC    (show WxCam)

METAR CYAH 301800Z AUTO 26009G15KT 240V310 9SM CLR 13/03 A3046 RMK
SLP328=
METAR CYAH 301700Z AUTO 29007KT 9SM SCT032 12/05 A3047 RMK SLP331=
METAR CYAH 301600Z AUTO 25009KT 9SM FEW023 BKN032 12/06 A3047 RMK
SLP332=

TAF CYAH 301738Z 3018/3021 29008KT P6SM SCT030
RMK FCST BASED ON AUTO OBS. NXT FCST WILL BE ISSUED AT 011045Z=
Your time UTC time
Weather data provided by Environment Canada and NAV CANADA